TimePDT,TemperatureF,Dew PointF,Humidity,Sea Level PressureIn,VisibilityMPH,Wind Direction,Wind SpeedMPH,Gust SpeedMPH,PrecipitationIn,Events,Conditions,WindDirDegrees,DateUTC
12:53 AM,60.1,48.0,64,29.94,10.0,Calm,Calm,-,N/A,,Clear,0,2013-08-14 07:53:00
1:53 AM,61.0,48.0,62,29.94,10.0,Calm,Calm,-,N/A,,Clear,0,2013-08-14 08:53:00
2:53 AM,61.0,48.9,64,29.94,10.0,Calm,Calm,-,N/A,,Clear,0,2013-08-14 09:53:00
3:53 AM,57.0,48.9,74,29.93,10.0,NE,3.5,-,N/A,,Clear,40,2013-08-14 10:53:00
4:53 AM,57.0,48.0,72,29.92,10.0,Calm,Calm,-,N/A,,Clear,0,2013-08-14 11:53:00
5:53 AM,57.9,50.0,75,29.93,10.0,East,3.5,-,N/A,,Mostly Cloudy,100,2013-08-14 12:53:00
6:44 AM,55.4,48.2,77,29.97,10.0,NNE,3.5,-,N/A,,Partly Cloudy,20,2013-08-14 13:44:00
6:53 AM,57.0,50.0,77,29.94,10.0,Calm,Calm,-,N/A,,Partly Cloudy,0,2013-08-14 13:53:00
7:53 AM,62.1,52.0,70,29.94,10.0,Calm,Calm,-,N/A,,Clear,0,2013-08-14 14:53:00
8:53 AM,66.9,52.0,59,29.94,10.0,SE,3.5,-,N/A,,Clear,130,2013-08-14 15:53:00
9:53 AM,72.0,54.0,53,29.94,10.0,ESE,5.8,-,N/A,,Clear,110,2013-08-14 16:53:00
10:53 AM,78.1,55.0,45,29.92,10.0,Variable,3.5,-,N/A,,Clear,0,2013-08-14 17:53:00
11:53 AM,81.0,55.0,41,29.92,10.0,Calm,Calm,-,N/A,,Clear,0,2013-08-14 18:53:00
12:53 PM,82.9,54.0,37,29.91,10.0,West,3.5,-,N/A,,Clear,280,2013-08-14 19:53:00
1:53 PM,89.1,53.1,29,29.88,10.0,NW,5.8,-,N/A,,Clear,310,2013-08-14 20:53:00
2:53 PM,91.0,43.0,19,29.86,10.0,East,4.6,-,0.00,,Clear,80,2013-08-14 21:53:00
3:53 PM,86.0,55.9,36,29.85,10.0,WNW,6.9,-,N/A,,Clear,290,2013-08-14 22:53:00
4:53 PM,88.0,51.1,28,29.84,10.0,WNW,9.2,-,N/A,,Clear,300,2013-08-14 23:53:00
5:53 PM,84.9,51.1,31,29.84,10.0,NW,17.3,23.0,N/A,,Clear,310,2013-08-15 00:53:00
6:53 PM,80.1,51.1,36,29.85,10.0,NW,18.4,24.2,N/A,,Clear,320,2013-08-15 01:53:00
7:53 PM,79.0,51.1,38,29.86,10.0,NW,19.6,27.6,N/A,,Clear,320,2013-08-15 02:53:00
8:53 PM,75.9,52.0,43,29.86,10.0,NW,18.4,26.5,N/A,,Clear,320,2013-08-15 03:53:00
9:53 PM,75.0,52.0,44,29.88,10.0,NW,23.0,-,N/A,,Clear,310,2013-08-15 04:53:00
10:53 PM,75.0,52.0,44,29.88,10.0,NW,19.6,25.3,N/A,,Clear,310,2013-08-15 05:53:00
11:53 PM,73.0,52.0,48,29.88,10.0,NW,13.8,-,N/A,,Clear,320,2013-08-15 06:53:00